sensor_id;sensor_type;location;lat;lon;timestamp;P1;durP1;ratioP1;P2;durP2;ratioP2
25301;SDS011;13243;50.888;4.724;2023-05-07T00:03:00;8.55;;;4.40;;
25301;SDS011;13243;50.888;4.724;2023-05-07T00:08:03;8.02;;;4.40;;
25301;SDS011;13243;50.888;4.724;2023-05-07T00:13:05;12.43;;;4.90;;
25301;SDS011;13243;50.888;4.724;2023-05-07T00:18:06;7.97;;;4.70;;
25301;SDS011;13243;50.888;4.724;2023-05-07T00:23:08;9.02;;;4.57;;
25301;SDS011;13243;50.888;4.724;2023-05-07T00:28:11;9.18;;;4.70;;
25301;SDS011;13243;50.888;4.724;2023-05-07T00:33:13;6.10;;;4.60;;
25301;SDS011;13243;50.888;4.724;2023-05-07T00:38:14;6.40;;;4.93;;
25301;SDS011;13243;50.888;4.724;2023-05-07T00:43:16;10.75;;;4.40;;
25301;SDS011;13243;50.888;4.724;2023-05-07T00:48:18;7.18;;;5.20;;
25301;SDS011;13243;50.888;4.724;2023-05-07T00:53:20;13.52;;;5.32;;
25301;SDS011;13243;50.888;4.724;2023-05-07T00:58:22;11.32;;;5.70;;
25301;SDS011;13243;50.888;4.724;2023-05-07T01:03:25;7.85;;;4.80;;
25301;SDS011;13243;50.888;4.724;2023-05-07T01:08:28;11.48;;;5.25;;
25301;SDS011;13243;50.888;4.724;2023-05-07T01:13:31;13.40;;;6.18;;
25301;SDS011;13243;50.888;4.724;2023-05-07T01:18:34;8.20;;;5.60;;
25301;SDS011;13243;50.888;4.724;2023-05-07T01:23:36;7.10;;;5.32;;
25301;SDS011;13243;50.888;4.724;2023-05-07T01:28:39;7.90;;;5.30;;
25301;SDS011;13243;50.888;4.724;2023-05-07T01:33:41;19.90;;;5.65;;
25301;SDS011;13243;50.888;4.724;2023-05-07T01:38:47;8.63;;;5.20;;
25301;SDS011;13243;50.888;4.724;2023-05-07T01:43:49;8.70;;;5.95;;
25301;SDS011;13243;50.888;4.724;2023-05-07T01:48:53;10.60;;;6.32;;
25301;SDS011;13243;50.888;4.724;2023-05-07T01:53:55;9.45;;;6.45;;
25301;SDS011;13243;50.888;4.724;2023-05-07T01:58:57;9.63;;;6.90;;
25301;SDS011;13243;50.888;4.724;2023-05-07T02:03:59;9.95;;;6.88;;
25301;SDS011;13243;50.888;4.724;2023-05-07T02:09:01;12.10;;;6.60;;
25301;SDS011;13243;50.888;4.724;2023-05-07T02:14:03;9.32;;;6.43;;
25301;SDS011;13243;50.888;4.724;2023-05-07T02:19:05;10.85;;;6.95;;
25301;SDS011;13243;50.888;4.724;2023-05-07T02:24:07;12.25;;;7.20;;
25301;SDS011;13243;50.888;4.724;2023-05-07T02:29:09;10.90;;;6.20;;
25301;SDS011;13243;50.888;4.724;2023-05-07T02:34:10;11.55;;;6.32;;
25301;SDS011;13243;50.888;4.724;2023-05-07T02:39:12;9.07;;;6.70;;
25301;SDS011;13243;50.888;4.724;2023-05-07T02:44:15;12.48;;;6.70;;
25301;SDS011;13243;50.888;4.724;2023-05-07T02:49:16;13.05;;;7.38;;
25301;SDS011;13243;50.888;4.724;2023-05-07T02:54:18;12.90;;;8.10;;
25301;SDS011;13243;50.888;4.724;2023-05-07T02:59:20;10.63;;;7.93;;
25301;SDS011;13243;50.888;4.724;2023-05-07T03:04:22;12.25;;;7.70;;
25301;SDS011;13243;50.888;4.724;2023-05-07T03:09:24;14.18;;;8.95;;
25301;SDS011;13243;50.888;4.724;2023-05-07T03:14:26;13.98;;;8.00;;
25301;SDS011;13243;50.888;4.724;2023-05-07T03:19:27;13.93;;;8.80;;
25301;SDS011;13243;50.888;4.724;2023-05-07T03:24:31;15.38;;;8.23;;
25301;SDS011;13243;50.888;4.724;2023-05-07T03:29:33;15.32;;;8.52;;
25301;SDS011;13243;50.888;4.724;2023-05-07T03:34:35;13.73;;;8.55;;
25301;SDS011;13243;50.888;4.724;2023-05-07T03:39:37;12.43;;;8.65;;
25301;SDS011;13243;50.888;4.724;2023-05-07T03:44:39;14.15;;;8.95;;
25301;SDS011;13243;50.888;4.724;2023-05-07T03:49:41;16.17;;;9.25;;
25301;SDS011;13243;50.888;4.724;2023-05-07T03:54:42;17.08;;;9.80;;
25301;SDS011;13243;50.888;4.724;2023-05-07T03:59:44;14.40;;;10.13;;
25301;SDS011;13243;50.888;4.724;2023-05-07T04:04:48;15.85;;;9.70;;
25301;SDS011;13243;50.888;4.724;2023-05-07T04:09:50;15.02;;;9.73;;
25301;SDS011;13243;50.888;4.724;2023-05-07T04:14:52;17.13;;;11.57;;
25301;SDS011;13243;50.888;4.724;2023-05-07T04:19:55;17.05;;;11.20;;
25301;SDS011;13243;50.888;4.724;2023-05-07T04:24:57;18.20;;;11.48;;
25301;SDS011;13243;50.888;4.724;2023-05-07T04:29:59;17.70;;;11.85;;
25301;SDS011;13243;50.888;4.724;2023-05-07T04:35:01;26.40;;;12.05;;
25301;SDS011;13243;50.888;4.724;2023-05-07T04:40:03;15.38;;;11.10;;
25301;SDS011;13243;50.888;4.724;2023-05-07T04:45:06;19.42;;;10.77;;
25301;SDS011;13243;50.888;4.724;2023-05-07T04:50:08;17.17;;;11.48;;
25301;SDS011;13243;50.888;4.724;2023-05-07T04:55:10;15.05;;;11.20;;
25301;SDS011;13243;50.888;4.724;2023-05-07T05:00:12;17.63;;;11.25;;
25301;SDS011;13243;50.888;4.724;2023-05-07T05:05:15;17.63;;;11.93;;
25301;SDS011;13243;50.888;4.724;2023-05-07T05:10:17;19.00;;;11.90;;
25301;SDS011;13243;50.888;4.724;2023-05-07T05:15:19;15.98;;;11.25;;
25301;SDS011;13243;50.888;4.724;2023-05-07T05:20:21;12.10;;;9.90;;
25301;SDS011;13243;50.888;4.724;2023-05-07T05:25:23;15.05;;;10.02;;
25301;SDS011;13243;50.888;4.724;2023-05-07T05:30:24;16.23;;;10.57;;
25301;SDS011;13243;50.888;4.724;2023-05-07T05:35:26;15.77;;;10.32;;
25301;SDS011;13243;50.888;4.724;2023-05-07T05:40:28;18.45;;;11.18;;
25301;SDS011;13243;50.888;4.724;2023-05-07T05:45:30;17.05;;;10.23;;
25301;SDS011;13243;50.888;4.724;2023-05-07T05:50:32;19.52;;;11.32;;
25301;SDS011;13243;50.888;4.724;2023-05-07T05:55:34;14.43;;;10.63;;
25301;SDS011;13243;50.888;4.724;2023-05-07T06:00:36;15.43;;;10.32;;
25301;SDS011;13243;50.888;4.724;2023-05-07T06:05:38;15.43;;;10.80;;
25301;SDS011;13243;50.888;4.724;2023-05-07T06:10:40;18.52;;;10.13;;
25301;SDS011;13243;50.888;4.724;2023-05-07T06:15:41;15.05;;;9.45;;
25301;SDS011;13243;50.888;4.724;2023-05-07T06:20:43;13.65;;;9.68;;
25301;SDS011;13243;50.888;4.724;2023-05-07T06:25:48;15.38;;;10.10;;
25301;SDS011;13243;50.888;4.724;2023-05-07T06:30:54;17.25;;;10.07;;
25301;SDS011;13243;50.888;4.724;2023-05-07T06:35:55;14.35;;;9.60;;
25301;SDS011;13243;50.888;4.724;2023-05-07T06:40:57;16.08;;;9.32;;
25301;SDS011;13243;50.888;4.724;2023-05-07T06:45:59;13.98;;;7.60;;
25301;SDS011;13243;50.888;4.724;2023-05-07T06:51:01;8.45;;;5.57;;
25301;SDS011;13243;50.888;4.724;2023-05-07T06:56:03;9.38;;;5.05;;
25301;SDS011;13243;50.888;4.724;2023-05-07T07:01:05;8.60;;;4.78;;
25301;SDS011;13243;50.888;4.724;2023-05-07T07:06:06;15.65;;;5.25;;
25301;SDS011;13243;50.888;4.724;2023-05-07T07:11:09;15.43;;;5.40;;
25301;SDS011;13243;50.888;4.724;2023-05-07T07:16:11;8.07;;;4.35;;
25301;SDS011;13243;50.888;4.724;2023-05-07T07:21:13;13.10;;;5.57;;
25301;SDS011;13243;50.888;4.724;2023-05-07T07:26:16;11.98;;;5.10;;
25301;SDS011;13243;50.888;4.724;2023-05-07T07:31:18;8.63;;;4.38;;
25301;SDS011;13243;50.888;4.724;2023-05-07T07:36:20;11.45;;;4.20;;
25301;SDS011;13243;50.888;4.724;2023-05-07T07:41:23;7.40;;;3.60;;
25301;SDS011;13243;50.888;4.724;2023-05-07T07:46:25;7.80;;;3.60;;
25301;SDS011;13243;50.888;4.724;2023-05-07T07:51:27;7.22;;;3.35;;
25301;SDS011;13243;50.888;4.724;2023-05-07T07:56:31;6.80;;;3.17;;
25301;SDS011;13243;50.888;4.724;2023-05-07T08:01:34;8.43;;;4.18;;
25301;SDS011;13243;50.888;4.724;2023-05-07T08:06:36;8.13;;;3.75;;
25301;SDS011;13243;50.888;4.724;2023-05-07T08:11:38;7.53;;;4.65;;
25301;SDS011;13243;50.888;4.724;2023-05-07T08:16:41;7.63;;;3.65;;
25301;SDS011;13243;50.888;4.724;2023-05-07T08:21:43;12.60;;;4.13;;
25301;SDS011;13243;50.888;4.724;2023-05-07T08:26:44;9.13;;;3.20;;
25301;SDS011;13243;50.888;4.724;2023-05-07T08:31:48;10.40;;;3.30;;
25301;SDS011;13243;50.888;4.724;2023-05-07T08:36:49;8.43;;;3.78;;
25301;SDS011;13243;50.888;4.724;2023-05-07T08:41:51;8.07;;;3.53;;
25301;SDS011;13243;50.888;4.724;2023-05-07T08:46:58;4.68;;;3.40;;
25301;SDS011;13243;50.888;4.724;2023-05-07T08:52:01;5.80;;;3.78;;
25301;SDS011;13243;50.888;4.724;2023-05-07T08:57:03;7.10;;;3.38;;
25301;SDS011;13243;50.888;4.724;2023-05-07T09:02:06;10.20;;;3.22;;
25301;SDS011;13243;50.888;4.724;2023-05-07T09:07:10;7.05;;;3.10;;
25301;SDS011;13243;50.888;4.724;2023-05-07T09:12:12;11.57;;;4.40;;
25301;SDS011;13243;50.888;4.724;2023-05-07T09:17:17;4.88;;;3.15;;
25301;SDS011;13243;50.888;4.724;2023-05-07T09:22:19;7.53;;;3.72;;
25301;SDS011;13243;50.888;4.724;2023-05-07T09:27:22;10.30;;;3.70;;
25301;SDS011;13243;50.888;4.724;2023-05-07T09:32:24;8.60;;;3.83;;
25301;SDS011;13243;50.888;4.724;2023-05-07T09:37:30;6.97;;;3.30;;
25301;SDS011;13243;50.888;4.724;2023-05-07T09:42:32;10.50;;;3.78;;
25301;SDS011;13243;50.888;4.724;2023-05-07T09:47:34;8.27;;;2.92;;
25301;SDS011;13243;50.888;4.724;2023-05-07T09:52:40;6.43;;;3.25;;
25301;SDS011;13243;50.888;4.724;2023-05-07T09:57:42;5.28;;;3.22;;
25301;SDS011;13243;50.888;4.724;2023-05-07T10:02:46;9.07;;;4.05;;
25301;SDS011;13243;50.888;4.724;2023-05-07T10:07:50;8.85;;;4.05;;
25301;SDS011;13243;50.888;4.724;2023-05-07T10:12:53;6.82;;;3.67;;
25301;SDS011;13243;50.888;4.724;2023-05-07T10:17:56;5.93;;;3.60;;
25301;SDS011;13243;50.888;4.724;2023-05-07T10:22:59;6.93;;;3.03;;
25301;SDS011;13243;50.888;4.724;2023-05-07T10:28:06;6.95;;;3.00;;
25301;SDS011;13243;50.888;4.724;2023-05-07T10:33:10;6.22;;;2.67;;
25301;SDS011;13243;50.888;4.724;2023-05-07T10:38:14;6.97;;;2.97;;
25301;SDS011;13243;50.888;4.724;2023-05-07T10:43:16;7.43;;;3.28;;
25301;SDS011;13243;50.888;4.724;2023-05-07T10:48:18;9.70;;;3.60;;
25301;SDS011;13243;50.888;4.724;2023-05-07T10:53:24;14.63;;;3.78;;
25301;SDS011;13243;50.888;4.724;2023-05-07T10:58:28;7.50;;;2.60;;
25301;SDS011;13243;50.888;4.724;2023-05-07T11:03:33;8.98;;;2.97;;
25301;SDS011;13243;50.888;4.724;2023-05-07T11:13:58;6.15;;;2.13;;
25301;SDS011;13243;50.888;4.724;2023-05-07T11:19:00;3.38;;;1.95;;
25301;SDS011;13243;50.888;4.724;2023-05-07T11:24:02;7.35;;;2.20;;
25301;SDS011;13243;50.888;4.724;2023-05-07T11:29:10;4.70;;;2.13;;
25301;SDS011;13243;50.888;4.724;2023-05-07T11:34:13;6.05;;;2.10;;
25301;SDS011;13243;50.888;4.724;2023-05-07T11:39:23;6.68;;;1.80;;
25301;SDS011;13243;50.888;4.724;2023-05-07T11:44:39;5.13;;;2.60;;
25301;SDS011;13243;50.888;4.724;2023-05-07T11:49:42;3.75;;;1.88;;
25301;SDS011;13243;50.888;4.724;2023-05-07T11:54:52;5.07;;;1.98;;
25301;SDS011;13243;50.888;4.724;2023-05-07T11:59:56;4.60;;;2.00;;
25301;SDS011;13243;50.888;4.724;2023-05-07T12:04:59;7.47;;;2.97;;
25301;SDS011;13243;50.888;4.724;2023-05-07T12:10:05;5.90;;;2.30;;
25301;SDS011;13243;50.888;4.724;2023-05-07T12:15:08;2.72;;;2.00;;
25301;SDS011;13243;50.888;4.724;2023-05-07T12:20:10;5.95;;;2.10;;
25301;SDS011;13243;50.888;4.724;2023-05-07T12:25:12;7.35;;;2.05;;
25301;SDS011;13243;50.888;4.724;2023-05-07T12:30:20;5.25;;;1.83;;
25301;SDS011;13243;50.888;4.724;2023-05-07T12:35:29;3.55;;;1.73;;
25301;SDS011;13243;50.888;4.724;2023-05-07T12:46:01;5.70;;;1.60;;
25301;SDS011;13243;50.888;4.724;2023-05-07T12:51:05;2.78;;;1.48;;
25301;SDS011;13243;50.888;4.724;2023-05-07T12:56:09;3.85;;;2.15;;
25301;SDS011;13243;50.888;4.724;2023-05-07T13:01:11;7.05;;;1.70;;
25301;SDS011;13243;50.888;4.724;2023-05-07T13:06:16;3.42;;;1.70;;
25301;SDS011;13243;50.888;4.724;2023-05-07T13:11:18;5.00;;;1.75;;
25301;SDS011;13243;50.888;4.724;2023-05-07T13:16:20;5.03;;;1.60;;
25301;SDS011;13243;50.888;4.724;2023-05-07T13:21:22;5.00;;;1.70;;
25301;SDS011;13243;50.888;4.724;2023-05-07T13:26:24;5.35;;;1.80;;
25301;SDS011;13243;50.888;4.724;2023-05-07T13:31:27;3.30;;;1.48;;
25301;SDS011;13243;50.888;4.724;2023-05-07T13:36:29;4.53;;;1.75;;
25301;SDS011;13243;50.888;4.724;2023-05-07T13:41:34;4.40;;;2.08;;
25301;SDS011;13243;50.888;4.724;2023-05-07T13:46:36;4.93;;;2.20;;
25301;SDS011;13243;50.888;4.724;2023-05-07T13:51:38;5.85;;;2.53;;
25301;SDS011;13243;50.888;4.724;2023-05-07T13:56:40;4.93;;;2.40;;
25301;SDS011;13243;50.888;4.724;2023-05-07T14:01:42;3.42;;;1.77;;
25301;SDS011;13243;50.888;4.724;2023-05-07T14:06:43;5.70;;;2.35;;
25301;SDS011;13243;50.888;4.724;2023-05-07T14:11:45;4.35;;;2.17;;
25301;SDS011;13243;50.888;4.724;2023-05-07T14:16:48;5.30;;;2.42;;
25301;SDS011;13243;50.888;4.724;2023-05-07T14:21:51;3.42;;;2.38;;
25301;SDS011;13243;50.888;4.724;2023-05-07T14:26:53;4.10;;;2.30;;
25301;SDS011;13243;50.888;4.724;2023-05-07T14:31:55;4.93;;;2.03;;
25301;SDS011;13243;50.888;4.724;2023-05-07T14:36:57;4.68;;;2.45;;
25301;SDS011;13243;50.888;4.724;2023-05-07T14:41:59;7.68;;;2.72;;
25301;SDS011;13243;50.888;4.724;2023-05-07T14:47:01;6.75;;;2.30;;
25301;SDS011;13243;50.888;4.724;2023-05-07T14:52:03;5.40;;;3.03;;
25301;SDS011;13243;50.888;4.724;2023-05-07T14:57:08;4.68;;;2.05;;
25301;SDS011;13243;50.888;4.724;2023-05-07T15:02:11;6.07;;;2.28;;
25301;SDS011;13243;50.888;4.724;2023-05-07T15:07:14;5.30;;;2.35;;
25301;SDS011;13243;50.888;4.724;2023-05-07T15:12:16;10.13;;;3.10;;
25301;SDS011;13243;50.888;4.724;2023-05-07T15:17:18;5.40;;;2.55;;
25301;SDS011;13243;50.888;4.724;2023-05-07T15:22:20;6.25;;;2.58;;
25301;SDS011;13243;50.888;4.724;2023-05-07T15:27:22;7.65;;;2.85;;
25301;SDS011;13243;50.888;4.724;2023-05-07T15:32:24;3.42;;;2.28;;
25301;SDS011;13243;50.888;4.724;2023-05-07T15:37:26;3.05;;;2.03;;
25301;SDS011;13243;50.888;4.724;2023-05-07T15:42:28;5.32;;;2.53;;
25301;SDS011;13243;50.888;4.724;2023-05-07T15:47:31;5.85;;;2.70;;
25301;SDS011;13243;50.888;4.724;2023-05-07T15:52:35;5.75;;;2.55;;
25301;SDS011;13243;50.888;4.724;2023-05-07T15:57:37;5.20;;;2.70;;
25301;SDS011;13243;50.888;4.724;2023-05-07T16:02:39;9.05;;;2.33;;
25301;SDS011;13243;50.888;4.724;2023-05-07T16:07:41;3.70;;;2.45;;
25301;SDS011;13243;50.888;4.724;2023-05-07T16:12:44;5.88;;;2.67;;
25301;SDS011;13243;50.888;4.724;2023-05-07T16:17:46;3.55;;;2.70;;
25301;SDS011;13243;50.888;4.724;2023-05-07T16:22:49;5.60;;;3.00;;
25301;SDS011;13243;50.888;4.724;2023-05-07T16:27:52;6.82;;;3.00;;
25301;SDS011;13243;50.888;4.724;2023-05-07T16:32:55;4.00;;;2.97;;
25301;SDS011;13243;50.888;4.724;2023-05-07T16:37:57;6.90;;;3.10;;
25301;SDS011;13243;50.888;4.724;2023-05-07T16:42:58;4.82;;;3.13;;
25301;SDS011;13243;50.888;4.724;2023-05-07T16:48:00;3.90;;;2.67;;
25301;SDS011;13243;50.888;4.724;2023-05-07T16:53:04;4.40;;;2.90;;
25301;SDS011;13243;50.888;4.724;2023-05-07T16:58:07;4.50;;;3.03;;
25301;SDS011;13243;50.888;4.724;2023-05-07T17:03:11;5.53;;;3.53;;
25301;SDS011;13243;50.888;4.724;2023-05-07T17:08:13;5.38;;;3.13;;
25301;SDS011;13243;50.888;4.724;2023-05-07T17:13:15;4.93;;;2.88;;
25301;SDS011;13243;50.888;4.724;2023-05-07T17:18:17;4.43;;;3.03;;
25301;SDS011;13243;50.888;4.724;2023-05-07T17:23:19;5.53;;;3.60;;
25301;SDS011;13243;50.888;4.724;2023-05-07T17:28:21;5.72;;;3.47;;
25301;SDS011;13243;50.888;4.724;2023-05-07T17:33:23;6.07;;;4.15;;
25301;SDS011;13243;50.888;4.724;2023-05-07T17:38:25;4.90;;;3.78;;
25301;SDS011;13243;50.888;4.724;2023-05-07T17:43:26;5.55;;;4.47;;
25301;SDS011;13243;50.888;4.724;2023-05-07T17:48:28;5.28;;;3.95;;
25301;SDS011;13243;50.888;4.724;2023-05-07T17:53:31;7.75;;;5.28;;
25301;SDS011;13243;50.888;4.724;2023-05-07T17:58:32;8.00;;;4.45;;
25301;SDS011;13243;50.888;4.724;2023-05-07T18:03:54;7.90;;;4.93;;
25301;SDS011;13243;50.888;4.724;2023-05-07T18:08:57;6.85;;;4.93;;
25301;SDS011;13243;50.888;4.724;2023-05-07T18:13:59;5.80;;;3.83;;
25301;SDS011;13243;50.888;4.724;2023-05-07T18:19:01;6.97;;;4.25;;
25301;SDS011;13243;50.888;4.724;2023-05-07T18:24:03;6.97;;;4.78;;
25301;SDS011;13243;50.888;4.724;2023-05-07T18:29:05;6.20;;;4.20;;
25301;SDS011;13243;50.888;4.724;2023-05-07T18:34:07;5.95;;;4.28;;
25301;SDS011;13243;50.888;4.724;2023-05-07T18:39:10;9.50;;;5.40;;
25301;SDS011;13243;50.888;4.724;2023-05-07T18:44:12;9.77;;;4.95;;
25301;SDS011;13243;50.888;4.724;2023-05-07T18:49:14;6.32;;;4.55;;
25301;SDS011;13243;50.888;4.724;2023-05-07T18:54:16;6.60;;;4.68;;
25301;SDS011;13243;50.888;4.724;2023-05-07T18:59:18;7.53;;;4.63;;
25301;SDS011;13243;50.888;4.724;2023-05-07T19:04:20;10.60;;;5.80;;
25301;SDS011;13243;50.888;4.724;2023-05-07T19:09:22;8.48;;;6.00;;
25301;SDS011;13243;50.888;4.724;2023-05-07T19:14:24;8.00;;;5.80;;
25301;SDS011;13243;50.888;4.724;2023-05-07T19:19:25;12.68;;;6.82;;
25301;SDS011;13243;50.888;4.724;2023-05-07T19:24:28;10.48;;;6.63;;
25301;SDS011;13243;50.888;4.724;2023-05-07T19:29:30;14.80;;;6.72;;
25301;SDS011;13243;50.888;4.724;2023-05-07T19:34:31;10.07;;;7.18;;
25301;SDS011;13243;50.888;4.724;2023-05-07T19:39:33;12.80;;;8.23;;
25301;SDS011;13243;50.888;4.724;2023-05-07T19:44:35;10.35;;;7.53;;
25301;SDS011;13243;50.888;4.724;2023-05-07T19:49:37;12.00;;;8.07;;
25301;SDS011;13243;50.888;4.724;2023-05-07T19:54:39;9.00;;;7.07;;
25301;SDS011;13243;50.888;4.724;2023-05-07T19:59:41;10.85;;;8.32;;
25301;SDS011;13243;50.888;4.724;2023-05-07T20:04:43;14.30;;;8.07;;
25301;SDS011;13243;50.888;4.724;2023-05-07T20:09:44;11.35;;;7.65;;
25301;SDS011;13243;50.888;4.724;2023-05-07T20:14:46;11.10;;;7.20;;
25301;SDS011;13243;50.888;4.724;2023-05-07T20:19:48;10.02;;;7.05;;
25301;SDS011;13243;50.888;4.724;2023-05-07T20:24:50;10.25;;;7.63;;
25301;SDS011;13243;50.888;4.724;2023-05-07T20:29:52;11.98;;;7.50;;
25301;SDS011;13243;50.888;4.724;2023-05-07T20:34:53;10.40;;;7.55;;
25301;SDS011;13243;50.888;4.724;2023-05-07T20:39:55;10.20;;;7.65;;
25301;SDS011;13243;50.888;4.724;2023-05-07T20:44:57;10.82;;;7.25;;
25301;SDS011;13243;50.888;4.724;2023-05-07T20:50:03;11.40;;;8.20;;
25301;SDS011;13243;50.888;4.724;2023-05-07T20:55:05;10.98;;;6.60;;
25301;SDS011;13243;50.888;4.724;2023-05-07T21:00:07;13.95;;;7.90;;
25301;SDS011;13243;50.888;4.724;2023-05-07T21:05:10;12.13;;;8.57;;
25301;SDS011;13243;50.888;4.724;2023-05-07T21:10:11;12.10;;;8.02;;
25301;SDS011;13243;50.888;4.724;2023-05-07T21:15:14;13.32;;;8.75;;
25301;SDS011;13243;50.888;4.724;2023-05-07T21:20:16;14.05;;;9.45;;
25301;SDS011;13243;50.888;4.724;2023-05-07T21:25:17;15.70;;;9.70;;
25301;SDS011;13243;50.888;4.724;2023-05-07T21:30:19;13.10;;;8.80;;
25301;SDS011;13243;50.888;4.724;2023-05-07T21:35:21;13.88;;;9.50;;
25301;SDS011;13243;50.888;4.724;2023-05-07T21:40:23;14.07;;;9.13;;
25301;SDS011;13243;50.888;4.724;2023-05-07T21:45:25;12.95;;;8.85;;
25301;SDS011;13243;50.888;4.724;2023-05-07T21:50:27;13.18;;;8.70;;
25301;SDS011;13243;50.888;4.724;2023-05-07T21:55:29;13.77;;;8.20;;
25301;SDS011;13243;50.888;4.724;2023-05-07T22:00:31;13.00;;;8.88;;
25301;SDS011;13243;50.888;4.724;2023-05-07T22:05:33;13.95;;;9.32;;
25301;SDS011;13243;50.888;4.724;2023-05-07T22:10:35;14.90;;;8.52;;
25301;SDS011;13243;50.888;4.724;2023-05-07T22:15:38;13.70;;;9.27;;
25301;SDS011;13243;50.888;4.724;2023-05-07T22:20:57;14.20;;;8.55;;
25301;SDS011;13243;50.888;4.724;2023-05-07T22:25:59;12.05;;;8.88;;
25301;SDS011;13243;50.888;4.724;2023-05-07T22:31:00;16.60;;;9.10;;
25301;SDS011;13243;50.888;4.724;2023-05-07T22:36:02;12.32;;;8.27;;
25301;SDS011;13243;50.888;4.724;2023-05-07T22:41:05;14.07;;;8.20;;
25301;SDS011;13243;50.888;4.724;2023-05-07T22:46:06;14.80;;;9.07;;
25301;SDS011;13243;50.888;4.724;2023-05-07T22:51:12;16.60;;;8.93;;
25301;SDS011;13243;50.888;4.724;2023-05-07T22:56:14;15.80;;;10.05;;
25301;SDS011;13243;50.888;4.724;2023-05-07T23:01:17;13.45;;;8.30;;
25301;SDS011;13243;50.888;4.724;2023-05-07T23:06:19;13.88;;;8.55;;
25301;SDS011;13243;50.888;4.724;2023-05-07T23:11:21;14.90;;;8.80;;
25301;SDS011;13243;50.888;4.724;2023-05-07T23:16:23;14.98;;;8.98;;
25301;SDS011;13243;50.888;4.724;2023-05-07T23:21:26;11.82;;;7.80;;
25301;SDS011;13243;50.888;4.724;2023-05-07T23:26:28;13.40;;;8.65;;
25301;SDS011;13243;50.888;4.724;2023-05-07T23:31:29;13.65;;;8.98;;
25301;SDS011;13243;50.888;4.724;2023-05-07T23:36:31;18.83;;;11.18;;
25301;SDS011;13243;50.888;4.724;2023-05-07T23:41:33;19.65;;;12.15;;
25301;SDS011;13243;50.888;4.724;2023-05-07T23:46:35;21.05;;;12.93;;
25301;SDS011;13243;50.888;4.724;2023-05-07T23:51:37;19.95;;;13.07;;
25301;SDS011;13243;50.888;4.724;2023-05-07T23:56:39;19.30;;;10.57;;
